Time;durP1;ratioP1;P1;durP2;ratioP2;P2;SDS_P1;SDS_P2;PMS_P1;PMS_P2;Temp;Humidity;BMP_temperature;BMP_pressure;BME280_temperature;BME280_humidity;BME280_pressure;Samples;Min_cycle;Max_cycle;Signal;HPM_P1;HPM_P2
2023/10/08 00:02:39;;;;;;;4.40;2.20;;;;;;;9.97;100.00;98573.41;137261;1274;22589;-85
2023/10/08 00:05:41;;;;;;;4.00;2.10;;;;;;;9.99;100.00;98583.52;137254;1275;22755;-84
2023/10/08 00:08:44;;;;;;;5.00;2.00;;;;;;;9.97;100.00;98595.84;137369;1274;22577;-85
2023/10/08 00:11:51;;;;;;;4.60;2.30;;;;;;;9.95;100.00;98580.36;137218;1275;22352;-85
2023/10/08 00:14:54;;;;;;;2.80;1.90;;;;;;;9.94;100.00;98587.81;137265;1271;22548;-85
2023/10/08 00:17:58;;;;;;;4.50;1.90;;;;;;;9.96;100.00;98599.84;137152;1275;21937;-86
2023/10/08 00:21:15;;;;;;;3.50;1.80;;;;;;;9.94;100.00;98613.36;137257;1274;22724;-86
2023/10/08 00:24:18;;;;;;;6.10;2.30;;;;;;;9.91;100.00;98609.17;137341;1275;22519;-86
2023/10/08 00:27:21;;;;;;;8.10;2.40;;;;;;;9.91;100.00;98611.60;137311;1275;22360;-86
2023/10/08 00:30:24;;;;;;;5.00;1.80;;;;;;;9.88;100.00;98618.00;137177;1275;22315;-86
2023/10/08 00:33:26;;;;;;;3.30;1.70;;;;;;;9.86;100.00;98614.85;137300;1275;22226;-86
2023/10/08 00:36:29;;;;;;;4.70;1.80;;;;;;;9.85;100.00;98585.12;137276;1275;22586;-85
2023/10/08 00:39:34;;;;;;;2.60;2.00;;;;;;;9.82;100.00;98588.57;137187;1274;22194;-87
2023/10/08 00:42:37;;;;;;;1.80;1.70;;;;;;;9.79;100.00;98599.14;137247;1275;22307;-85
2023/10/08 00:45:43;;;;;;;2.90;1.30;;;;;;;9.77;100.00;98606.06;137073;1275;22553;-86
2023/10/08 00:48:46;;;;;;;5.10;1.90;;;;;;;9.74;100.00;98595.95;137241;1275;22525;-85
2023/10/08 00:51:54;;;;;;;2.50;1.50;;;;;;;9.73;100.00;98597.34;137313;1271;22800;-86
2023/10/08 00:55:07;;;;;;;5.90;1.90;;;;;;;9.73;100.00;98601.32;137329;1275;22241;-86
2023/10/08 00:58:11;;;;;;;4.40;2.40;;;;;;;9.72;100.00;98600.80;137267;1275;22450;-85
2023/10/08 01:01:16;;;;;;;3.40;1.60;;;;;;;9.70;100.00;98604.95;137305;1275;22189;-85
2023/10/08 01:04:22;;;;;;;;;;;;;;;9.68;100.00;98616.05;137241;1275;22506;-85
2023/10/08 01:07:24;;;;;;;3.40;1.70;;;;;;;9.64;100.00;98620.15;137318;1275;22224;-84
2023/10/08 01:10:27;;;;;;;5.20;1.90;;;;;;;9.61;100.00;98615.43;137309;1275;22152;-85
2023/10/08 01:13:35;;;;;;;2.70;1.70;;;;;;;9.59;100.00;98611.77;137240;1275;22240;-86
2023/10/08 01:16:41;;;;;;;3.10;1.80;;;;;;;9.57;100.00;98596.11;137332;1275;22907;-85
2023/10/08 01:19:45;;;;;;;3.20;1.30;;;;;;;9.59;100.00;98590.20;137317;1275;22229;-85
2023/10/08 01:22:48;;;;;;;4.80;2.50;;;;;;;9.60;100.00;98589.53;137205;1275;22412;-85
2023/10/08 01:25:52;;;;;;;4.60;2.20;;;;;;;9.60;100.00;98590.05;137192;1275;22221;-86
2023/10/08 01:28:54;;;;;;;5.30;2.00;;;;;;;9.61;100.00;98599.11;137214;1275;22239;-84
2023/10/08 01:32:09;;;;;;;3.80;1.90;;;;;;;9.61;100.00;98605.17;137389;1263;22177;-85
2023/10/08 01:35:22;;;;;;;4.30;1.70;;;;;;;9.59;100.00;98612.80;137320;1275;22375;-84
2023/10/08 01:38:26;;;;;;;4.60;2.20;;;;;;;9.58;100.00;98618.53;137219;1275;22562;-86
2023/10/08 01:41:30;;;;;;;3.80;1.90;;;;;;;9.59;100.00;98612.29;137285;1275;22956;-85
2023/10/08 01:44:33;;;;;;;5.00;2.20;;;;;;;9.65;100.00;98595.50;137329;1275;22626;-85
2023/10/08 01:47:36;;;;;;;5.90;2.10;;;;;;;9.68;100.00;98589.27;137281;1275;22207;-84
2023/10/08 01:50:38;;;;;;;3.60;1.90;;;;;;;9.68;100.00;98594.31;137341;1275;22561;-84
2023/10/08 01:53:41;;;;;;;3.90;2.10;;;;;;;9.68;100.00;98594.67;137006;1275;22544;-83
2023/10/08 01:56:43;;;;;;;4.40;2.50;;;;;;;9.67;100.00;98592.23;137278;1275;22177;-84
2023/10/08 01:59:46;;;;;;;3.90;1.90;;;;;;;9.67;100.00;98594.83;137227;1275;22197;-84
2023/10/08 02:02:50;;;;;;;4.10;2.20;;;;;;;9.65;100.00;98601.59;137345;1275;22266;-84
2023/10/08 02:05:53;;;;;;;3.50;1.80;;;;;;;9.63;100.00;98605.38;137284;1275;22605;-85
2023/10/08 02:08:56;;;;;;;2.40;1.80;;;;;;;9.62;100.00;98601.02;137292;1275;22158;-84
2023/10/08 02:11:58;;;;;;;3.50;2.00;;;;;;;9.62;100.00;98592.86;137324;1274;22513;-84
2023/10/08 02:15:02;;;;;;;3.40;1.80;;;;;;;9.65;100.00;98579.34;137367;1275;22177;-84
2023/10/08 02:18:05;;;;;;;4.90;1.90;;;;;;;9.66;100.00;98576.92;137293;1272;22067;-85
2023/10/08 02:21:10;;;;;;;6.10;1.90;;;;;;;9.65;100.00;98579.15;137118;1275;22533;-85
2023/10/08 02:24:12;;;;;;;8.00;1.90;;;;;;;9.67;100.00;98577.98;137256;1275;22169;-85
2023/10/08 02:27:15;;;;;;;2.70;1.70;;;;;;;9.67;100.00;98576.93;137269;1275;22438;-84
2023/10/08 02:30:18;;;;;;;5.30;2.00;;;;;;;9.66;100.00;98578.65;137304;1275;22558;-85
2023/10/08 02:33:21;;;;;;;6.00;2.90;;;;;;;9.68;100.00;98578.33;137316;1275;22537;-84
2023/10/08 02:36:23;;;;;;;3.70;2.30;;;;;;;9.69;100.00;98571.23;137235;1275;22304;-85
2023/10/08 02:39:26;;;;;;;5.50;2.40;;;;;;;9.70;100.00;98558.72;137139;1275;22162;-84
2023/10/08 02:42:29;;;;;;;4.20;2.70;;;;;;;9.71;100.00;98555.26;137188;1275;22206;-85
2023/10/08 02:45:31;;;;;;;7.80;2.30;;;;;;;9.71;100.00;98566.55;137235;1275;22573;-85
2023/10/08 02:48:34;;;;;;;3.00;2.00;;;;;;;9.72;100.00;98580.28;137256;1275;22243;-85
2023/10/08 02:51:37;;;;;;;5.50;1.90;;;;;;;9.71;100.00;98579.41;137132;1275;22401;-85
2023/10/08 02:54:41;;;;;;;4.50;2.50;;;;;;;9.70;100.00;98596.42;137254;1275;22479;-85
2023/10/08 02:57:43;;;;;;;4.40;2.10;;;;;;;9.68;100.00;98607.70;137283;1275;22164;-86
2023/10/08 03:00:46;;;;;;;4.70;2.40;;;;;;;9.66;100.00;98617.75;137283;1275;22179;-85
2023/10/08 03:03:49;;;;;;;5.00;2.50;;;;;;;9.64;100.00;98624.86;137294;1275;22298;-85
2023/10/08 03:06:52;;;;;;;3.10;2.00;;;;;;;9.62;100.00;98624.30;137325;1269;22425;-85
2023/10/08 03:10:03;;;;;;;4.60;2.00;;;;;;;9.60;100.00;98624.96;137310;1271;22199;-85
2023/10/08 03:13:07;;;;;;;7.30;1.90;;;;;;;9.58;100.00;98629.47;137257;1275;22368;-84
2023/10/08 03:16:13;;;;;;;4.70;2.70;;;;;;;9.55;100.00;98649.77;137200;1275;22536;-85
2023/10/08 03:19:18;;;;;;;3.40;2.00;;;;;;;9.54;100.00;98659.11;137325;1275;22274;-85
2023/10/08 03:22:21;;;;;;;4.30;2.00;;;;;;;9.53;100.00;98661.01;137304;1275;22195;-84
2023/10/08 03:25:24;;;;;;;5.10;2.40;;;;;;;9.51;100.00;98668.77;137245;1272;22583;-84
2023/10/08 03:28:27;;;;;;;4.50;2.10;;;;;;;9.48;100.00;98668.23;137300;1275;22156;-84
2023/10/08 03:31:44;;;;;;;5.50;2.00;;;;;;;9.43;100.00;98684.31;137295;1275;22188;-85
2023/10/08 03:34:47;;;;;;;6.90;2.10;;;;;;;9.41;100.00;98693.48;137337;1275;22230;-84
2023/10/08 03:37:50;;;;;;;5.90;1.70;;;;;;;9.39;100.00;98693.98;137358;1275;22366;-84
2023/10/08 03:40:57;;;;;;;5.40;2.20;;;;;;;9.38;100.00;98687.02;137324;1275;22652;-85
2023/10/08 03:44:05;;;;;;;6.40;2.00;;;;;;;9.37;100.00;98687.34;137333;1275;22798;-84
2023/10/08 03:47:10;;;;;;;6.30;2.10;;;;;;;9.32;100.00;98683.98;137258;1275;22310;-84
2023/10/08 03:50:17;;;;;;;5.60;2.20;;;;;;;9.33;100.00;98686.24;137254;1275;22227;-85
2023/10/08 03:53:22;;;;;;;8.40;2.60;;;;;;;9.34;100.00;98685.23;137341;1263;22190;-86
2023/10/08 03:56:25;;;;;;;5.60;2.40;;;;;;;9.31;100.00;98686.40;137324;1275;22188;-86
2023/10/08 03:59:34;;;;;;;8.70;2.50;;;;;;;9.30;100.00;98695.92;137332;1275;22193;-86
2023/10/08 04:02:40;;;;;;;10.60;2.80;;;;;;;9.31;100.00;98687.95;137360;1275;22204;-86
2023/10/08 04:05:59;;;;;;;6.90;2.30;;;;;;;9.30;100.00;98690.90;137244;1275;22597;-84
2023/10/08 04:09:16;;;;;;;10.00;2.30;;;;;;;9.30;100.00;98705.64;137144;1275;22685;-84
2023/10/08 04:12:21;;;;;;;9.10;2.50;;;;;;;9.28;100.00;98714.30;137238;1275;22184;-84
2023/10/08 04:15:23;;;;;;;7.20;2.30;;;;;;;9.28;100.00;98714.30;137313;1275;22749;-85
2023/10/08 04:18:26;;;;;;;7.00;3.30;;;;;;;9.28;100.00;98716.91;137198;1271;22278;-84
2023/10/08 04:21:29;;;;;;;8.00;2.80;;;;;;;9.27;100.00;98725.74;137292;1275;22211;-84
2023/10/08 04:24:34;;;;;;;8.90;3.20;;;;;;;9.25;100.00;98717.56;137290;1274;22426;-85
2023/10/08 04:27:38;;;;;;;9.10;2.90;;;;;;;9.25;100.00;98702.12;137207;1275;22233;-84
2023/10/08 04:30:42;;;;;;;7.70;3.00;;;;;;;9.26;100.00;98716.54;137273;1275;22401;-84
2023/10/08 04:33:54;;;;;;;8.20;3.00;;;;;;;9.25;100.00;98738.92;137287;1275;22236;-85
2023/10/08 04:37:00;;;;;;;5.90;2.80;;;;;;;9.25;100.00;98738.23;137180;1272;22286;-86
2023/10/08 04:40:04;;;;;;;10.70;2.80;;;;;;;9.25;100.00;98751.41;137134;1272;22291;-86
2023/10/08 04:43:10;;;;;;;6.00;2.50;;;;;;;9.24;100.00;98750.55;137222;1275;22536;-85
2023/10/08 04:46:33;;;;;;;10.50;3.10;;;;;;;9.24;100.00;98746.20;137271;1271;22161;-85
2023/10/08 04:49:45;;;;;;;8.70;2.70;;;;;;;9.24;100.00;98740.12;137275;1275;22182;-86
2023/10/08 04:52:58;;;;;;;8.00;3.20;;;;;;;9.24;100.00;98750.89;137284;1275;22835;-87
2023/10/08 04:56:05;;;;;;;7.60;3.50;;;;;;;9.22;100.00;98759.02;137362;1275;22278;-87
2023/10/08 04:59:11;;;;;;;9.80;3.70;;;;;;;9.21;100.00;98770.11;137200;1275;22551;-87
2023/10/08 05:02:19;;;;;;;12.50;4.10;;;;;;;9.21;100.00;98774.63;137265;1275;22201;-87
2023/10/08 05:05:29;;;;;;;12.70;4.60;;;;;;;9.19;100.00;98777.20;137238;1275;22183;-86
2023/10/08 05:08:47;;;;;;;12.30;5.50;;;;;;;9.18;100.00;98793.33;137368;1275;22647;-85
2023/10/08 05:12:08;;;;;;;10.70;4.70;;;;;;;9.17;100.00;98805.45;137306;1273;22166;-85
2023/10/08 05:15:37;;;;;;;7.60;3.90;;;;;;;9.14;100.00;98793.79;137249;1276;22626;-85
2023/10/08 05:23:16;;;;;;;4.80;3.80;;;;;;;9.10;100.00;98805.00;132838;1311;557908;-84
2023/10/08 05:26:30;;;;;;;7.80;4.10;;;;;;;9.06;100.00;98809.09;136654;1276;22397;-84
2023/10/08 05:30:11;;;;;;;5.10;4.00;;;;;;;9.05;100.00;98805.42;136584;1275;22536;-83
2023/10/08 05:33:25;;;;;;;6.70;4.30;;;;;;;9.05;100.00;98812.55;137105;1276;22609;-85
2023/10/08 05:36:35;;;;;;;7.30;3.80;;;;;;;9.06;100.00;98828.35;136621;1274;410593;-84
2023/10/08 05:39:42;;;;;;;5.20;4.10;;;;;;;9.09;100.00;98827.20;136922;1274;22201;-85
2023/10/08 05:42:46;;;;;;;5.40;4.20;;;;;;;9.12;100.00;98825.00;136981;1274;22535;-83
2023/10/08 05:52:53;;;;;;;10.30;3.90;;;;;;;9.28;100.00;98835.67;136112;1276;22194;-83
2023/10/08 05:56:01;;;;;;;5.10;3.70;;;;;;;9.34;100.00;98844.64;136369;1280;22615;-84
2023/10/08 05:59:15;;;;;;;8.90;4.30;;;;;;;9.37;100.00;98877.86;136759;1280;22548;-83
2023/10/08 06:02:28;;;;;;;6.60;4.20;;;;;;;9.37;100.00;98882.91;136318;1280;22251;-83
2023/10/08 06:05:33;;;;;;;8.90;5.60;;;;;;;9.38;100.00;98892.11;136348;1277;22262;-84
2023/10/08 06:08:51;;;;;;;6.70;4.50;;;;;;;9.37;100.00;98915.21;136532;1280;23038;-83
2023/10/08 06:12:06;;;;;;;8.10;4.70;;;;;;;9.38;100.00;98921.98;136565;1280;22290;-83
2023/10/08 06:15:08;;;;;;;8.90;5.30;;;;;;;9.38;100.00;98927.55;136253;1280;22262;-83
2023/10/08 06:18:10;;;;;;;7.80;5.60;;;;;;;9.42;100.00;98930.40;136523;1276;22557;-85
2023/10/08 06:21:11;;;;;;;7.10;5.40;;;;;;;9.49;100.00;98931.05;136552;1280;22194;-85
2023/10/08 06:24:27;;;;;;;8.00;5.00;;;;;;;9.54;100.00;98938.64;136311;1280;22171;-85
2023/10/08 06:27:32;;;;;;;7.30;4.90;;;;;;;9.56;100.00;98950.67;137009;1275;22214;-83
2023/10/08 06:30:35;;;;;;;7.60;5.00;;;;;;;9.64;100.00;98961.74;137439;1273;22184;-83
2023/10/08 06:33:37;;;;;;;5.90;4.80;;;;;;;9.82;100.00;98958.23;137024;1274;22534;-84
2023/10/08 06:36:41;;;;;;;4.90;4.40;;;;;;;10.05;100.00;98969.89;136869;1274;22223;-84
2023/10/08 06:39:57;;;;;;;8.20;5.30;;;;;;;10.19;100.00;98973.09;137219;1274;22545;-84
2023/10/08 06:43:03;;;;;;;8.60;5.30;;;;;;;10.30;100.00;98979.18;137125;1274;22387;-84
2023/10/08 06:46:07;;;;;;;10.90;5.20;;;;;;;10.35;100.00;98986.74;137120;1274;22542;-83
2023/10/08 06:49:14;;;;;;;8.60;4.60;;;;;;;10.37;100.00;98996.69;137175;1274;22266;-83
2023/10/08 06:55:37;;;;;;;8.40;5.40;;;;;;;10.54;100.00;99009.32;137125;1274;22540;-82
2023/10/08 06:58:42;;;;;;;9.60;5.50;;;;;;;10.52;100.00;99015.21;137222;1274;22263;-85
2023/10/08 07:01:45;;;;;;;9.40;5.70;;;;;;;10.46;100.00;99029.03;137312;1274;22569;-82
2023/10/08 07:04:47;;;;;;;10.10;5.80;;;;;;;10.35;100.00;99028.48;137342;1274;22631;-82
2023/10/08 07:07:48;;;;;;;12.50;5.60;;;;;;;10.35;100.00;99032.83;137151;1270;22235;-82
2023/10/08 07:10:49;;;;;;;9.30;4.90;;;;;;;10.34;100.00;99040.30;137309;1274;22257;-82
2023/10/08 07:13:51;;;;;;;13.90;5.40;;;;;;;10.38;100.00;99051.16;137433;1274;22851;-82
2023/10/08 07:16:54;;;;;;;8.60;5.20;;;;;;;10.57;100.00;99048.34;137142;1269;22197;-83
2023/10/08 07:19:57;;;;;;;9.90;5.50;;;;;;;10.71;100.00;99065.79;137319;1274;22986;-83
2023/10/08 07:22:59;;;;;;;7.80;4.30;;;;;;;10.76;100.00;99065.52;137428;1274;22191;-82
2023/10/08 07:26:10;;;;;;;14.10;6.70;;;;;;;10.93;100.00;99062.08;137222;1274;22683;-82
2023/10/08 07:29:11;;;;;;;6.00;4.50;;;;;;;11.04;100.00;99075.14;137196;1274;22430;-83
2023/10/08 07:32:14;;;;;;;8.80;4.70;;;;;;;11.07;100.00;99083.53;137223;1274;22741;-82
2023/10/08 07:35:24;;;;;;;4.60;3.90;;;;;;;11.08;100.00;99089.30;137377;1274;22253;-82
2023/10/08 07:38:27;;;;;;;6.90;3.80;;;;;;;10.99;100.00;99094.40;137320;1268;22281;-82
2023/10/08 07:41:28;;;;;;;7.10;3.90;;;;;;;10.65;100.00;99111.80;137170;1274;23000;-81
2023/10/08 07:44:30;;;;;;;8.30;4.10;;;;;;;10.28;100.00;99110.65;137379;1274;22512;-82
2023/10/08 07:47:31;;;;;;;6.00;3.70;;;;;;;9.98;100.00;99126.94;137342;1274;22210;-81
2023/10/08 07:50:32;;;;;;;6.90;3.40;;;;;;;9.76;100.00;99126.70;137236;1274;22731;-80
2023/10/08 07:53:37;;;;;;;6.70;4.00;;;;;;;9.75;100.00;99135.39;137462;1274;22192;-80
2023/10/08 07:56:38;;;;;;;6.90;3.70;;;;;;;9.96;100.00;99138.73;137130;1274;22573;-78
2023/10/08 07:59:41;;;;;;;5.40;3.90;;;;;;;10.16;100.00;99149.02;137473;1274;22715;-81
2023/10/08 08:02:42;;;;;;;5.40;3.10;;;;;;;10.40;100.00;99164.63;137423;1270;22163;-78
2023/10/08 08:05:44;;;;;;;4.90;2.80;;;;;;;10.53;100.00;99166.45;137418;1274;22212;-80
2023/10/08 08:08:45;;;;;;;5.30;3.00;;;;;;;10.64;100.00;99171.15;137442;1274;22247;-80
2023/10/08 08:11:46;;;;;;;5.90;2.40;;;;;;;10.69;100.00;99178.02;137205;1274;23154;-79
2023/10/08 08:14:47;;;;;;;3.80;2.60;;;;;;;10.75;100.00;99174.81;137432;1274;22134;-80
2023/10/08 08:17:49;;;;;;;3.60;2.50;;;;;;;10.90;100.00;99185.84;137143;1274;22260;-80
2023/10/08 08:20:50;;;;;;;4.70;2.20;;;;;;;10.94;100.00;99195.48;137184;1274;22165;-81
2023/10/08 08:23:52;;;;;;;3.30;1.80;;;;;;;10.98;100.00;99191.89;137205;1274;25509;-80
2023/10/08 08:27:01;;;;;;;3.30;1.80;;;;;;;11.07;100.00;99196.04;137191;1274;22243;-81
2023/10/08 08:30:10;;;;;;;2.80;2.10;;;;;;;11.15;100.00;99193.02;137253;1274;22223;-81
2023/10/08 08:33:11;;;;;;;3.00;1.80;;;;;;;11.20;100.00;99199.19;137240;1274;25405;-80
2023/10/08 08:36:12;;;;;;;3.80;1.80;;;;;;;11.19;100.00;99200.40;137431;1274;22159;-81
2023/10/08 08:39:27;;;;;;;5.20;2.20;;;;;;;11.06;100.00;99209.27;137187;1274;22163;-81
2023/10/08 08:42:28;;;;;;;3.40;1.60;;;;;;;10.80;100.00;99209.20;137241;1274;22206;-82
2023/10/08 08:45:33;;;;;;;3.70;1.60;;;;;;;10.67;100.00;99216.97;137417;1274;22539;-81
2023/10/08 08:48:34;;;;;;;5.70;1.70;;;;;;;10.78;100.00;99214.90;137249;1274;22662;-83
2023/10/08 08:51:35;;;;;;;2.90;1.50;;;;;;;10.96;100.00;99210.84;137348;1274;22561;-83
2023/10/08 08:54:36;;;;;;;5.00;2.70;;;;;;;11.04;100.00;99218.28;137331;1274;22182;-82
2023/10/08 08:57:39;;;;;;;5.90;2.40;;;;;;;11.11;100.00;99215.08;137313;1274;22185;-83
2023/10/08 09:00:43;;;;;;;1.50;1.40;;;;;;;11.23;100.00;99227.30;137353;1274;22205;-83
2023/10/08 09:03:47;;;;;;;1.50;1.00;;;;;;;11.26;72.45;99219.49;137315;1274;23143;-81
2023/10/08 09:06:53;;;;;;;3.90;2.40;;;;;;;11.33;63.88;99239.32;137409;1274;22227;-84
2023/10/08 09:09:55;;;;;;;1.90;1.40;;;;;;;11.35;63.97;99237.42;137366;1274;22567;-83
2023/10/08 09:12:59;;;;;;;1.80;1.60;;;;;;;11.27;60.84;99235.73;137364;1274;22190;-83
2023/10/08 09:16:00;;;;;;;3.40;2.00;;;;;;;11.25;60.96;99238.98;137408;1274;22304;-82
2023/10/08 09:22:19;;;;;;;3.90;1.30;;;;;;;11.39;59.63;99249.86;132386;1307;544726;-82
2023/10/08 09:25:24;;;;;;;2.10;1.20;;;;;;;11.42;60.50;99254.09;135573;1289;22161;-79
2023/10/08 09:28:26;;;;;;;2.90;1.20;;;;;;;11.28;60.65;99258.04;136081;1289;22568;-83
2023/10/08 09:31:35;;;;;;;5.00;1.50;;;;;;;11.44;62.30;99261.79;135928;1289;22353;-81
2023/10/08 09:34:37;;;;;;;1.70;1.30;;;;;;;11.46;60.46;99265.48;136145;1278;150327;-82
2023/10/08 09:37:40;;;;;;;2.10;1.50;;;;;;;11.14;55.03;99283.58;136462;1278;22546;-81
2023/10/08 09:40:44;;;;;;;3.00;1.70;;;;;;;11.02;55.12;99278.34;136934;1278;22554;-82
2023/10/08 09:43:46;;;;;;;3.40;1.40;;;;;;;11.10;55.07;99276.73;136371;1277;22244;-80
2023/10/08 09:46:49;;;;;;;2.80;1.80;;;;;;;11.20;55.71;99280.38;136363;1277;22551;-83
2023/10/08 09:49:52;;;;;;;1.40;1.20;;;;;;;11.19;53.61;99287.33;136939;1278;22255;-85
2023/10/08 09:52:56;;;;;;;2.30;1.60;;;;;;;11.13;53.64;99283.05;136528;1277;22206;-81
2023/10/08 09:55:58;;;;;;;2.10;1.30;;;;;;;11.01;55.07;99293.11;136440;1278;24744;-81
2023/10/08 09:59:01;;;;;;;1.70;1.10;;;;;;;10.96;55.35;99295.45;136891;1276;22556;-82
2023/10/08 10:02:04;;;;;;;1.90;1.20;;;;;;;10.91;53.63;99306.87;136976;1275;22172;-79
2023/10/08 10:05:07;;;;;;;4.60;1.40;;;;;;;10.89;54.51;99308.23;136664;1277;22285;-81
2023/10/08 10:08:10;;;;;;;5.60;1.70;;;;;;;10.90;53.31;99318.69;136534;1277;22644;-81
2023/10/08 10:11:12;;;;;;;3.30;1.00;;;;;;;10.83;53.19;99320.67;137168;1277;22276;-82
2023/10/08 10:14:15;;;;;;;2.60;1.10;;;;;;;10.84;52.93;99316.16;136619;1276;22524;-82
2023/10/08 10:17:20;;;;;;;2.00;1.40;;;;;;;10.91;54.22;99319.77;137038;1274;22534;-80
2023/10/08 10:20:22;;;;;;;2.00;1.30;;;;;;;11.02;53.37;99332.66;137530;1274;22217;-80
2023/10/08 10:23:26;;;;;;;1.90;1.30;;;;;;;10.98;53.02;99327.89;137021;1274;22377;-80
2023/10/08 10:26:30;;;;;;;4.20;1.80;;;;;;;11.02;53.84;99330.23;137496;1274;22206;-81
2023/10/08 10:29:32;;;;;;;;;;;;;;;11.14;53.79;99328.70;137503;1274;23062;-79
2023/10/08 10:32:35;;;;;;;1.10;1.00;;;;;;;11.21;53.82;99330.38;137409;1274;22221;-80
2023/10/08 10:35:40;;;;;;;2.10;1.40;;;;;;;11.28;52.40;99327.05;137016;1274;22214;-81
2023/10/08 10:38:42;;;;;;;4.70;1.10;;;;;;;11.31;52.41;99327.27;137134;1274;22554;-81
2023/10/08 10:41:45;;;;;;;8.70;1.50;;;;;;;11.19;51.28;99331.40;137056;1274;22535;-81
2023/10/08 10:44:49;;;;;;;2.10;1.40;;;;;;;11.19;52.44;99323.21;136835;1274;22271;-80
2023/10/08 10:47:51;;;;;;;2.50;1.70;;;;;;;11.26;53.72;99328.92;136824;1274;22242;-80
2023/10/08 10:54:23;;;;;;;1.80;1.20;;;;;;;11.33;51.29;99331.67;137140;1274;22238;-81
2023/10/08 10:57:34;;;;;;;4.00;1.60;;;;;;;11.30;51.48;99329.52;136839;1274;22172;-82
2023/10/08 11:00:56;;;;;;;3.40;1.60;;;;;;;11.31;50.57;99318.23;136840;1274;22607;-82
2023/10/08 11:03:59;;;;;;;2.40;1.20;;;;;;;11.27;50.20;99323.02;137316;1274;23384;-80
2023/10/08 11:07:01;;;;;;;2.70;1.50;;;;;;;11.28;50.06;99327.91;137039;1274;22311;-81
2023/10/08 11:10:09;;;;;;;4.90;1.60;;;;;;;11.26;48.73;99325.79;136806;1274;22276;-83
2023/10/08 11:13:15;;;;;;;3.40;1.20;;;;;;;11.25;49.10;99338.83;136947;1274;22530;-81
2023/10/08 11:16:19;;;;;;;1.80;1.40;;;;;;;11.22;49.92;99329.18;137301;1274;22556;-83
2023/10/08 11:19:22;;;;;;;5.10;2.00;;;;;;;11.27;51.07;99328.40;136845;1274;22494;-81
2023/10/08 11:22:24;;;;;;;4.70;2.00;;;;;;;11.28;51.23;99330.18;136812;1274;22246;-81
2023/10/08 11:25:30;;;;;;;3.20;2.40;;;;;;;11.34;52.38;99328.89;137320;1274;22782;-82
2023/10/08 11:28:34;;;;;;;4.70;1.90;;;;;;;11.33;50.22;99321.57;136832;1274;22239;-82
2023/10/08 11:31:39;;;;;;;2.50;1.70;;;;;;;11.22;48.43;99324.99;136795;1274;21950;-81
2023/10/08 11:34:41;;;;;;;;;;;;;;;11.27;49.21;99331.55;137146;1274;22516;-81
2023/10/08 11:37:44;;;;;;;2.10;1.50;;;;;;;11.31;48.75;99335.98;137202;1274;22181;-79
2023/10/08 11:40:48;;;;;;;2.40;1.50;;;;;;;11.36;48.68;99334.16;136838;1274;22151;-83
2023/10/08 11:43:53;;;;;;;2.00;1.60;;;;;;;11.44;48.62;99341.26;136739;1269;24174;-79
2023/10/08 11:47:00;;;;;;;1.90;1.50;;;;;;;11.40;47.83;99345.90;137455;1274;22641;-82
2023/10/08 11:50:10;;;;;;;3.00;2.00;;;;;;;11.35;47.62;99344.41;136889;1274;22280;-82
2023/10/08 11:53:12;;;;;;;4.30;2.10;;;;;;;11.37;46.96;99339.91;136815;1274;22658;-83
2023/10/08 11:56:14;;;;;;;2.70;1.60;;;;;;;11.35;44.59;99341.98;137166;1274;22549;-81
2023/10/08 11:59:18;;;;;;;2.10;1.30;;;;;;;11.28;43.89;99343.59;137112;1274;22549;-80
2023/10/08 12:02:20;;;;;;;2.10;1.50;;;;;;;11.36;45.14;99339.73;136755;1274;22435;-83
2023/10/08 12:05:24;;;;;;;5.80;1.60;;;;;;;11.42;43.59;99344.54;137048;1274;22546;-82
2023/10/08 12:08:27;;;;;;;1.70;1.10;;;;;;;11.46;43.79;99345.14;137367;1274;22201;-82
2023/10/08 12:11:32;;;;;;;3.10;2.10;;;;;;;11.38;44.21;99348.48;136721;1274;22181;-83
2023/10/08 12:14:34;;;;;;;3.50;1.40;;;;;;;11.34;45.13;99342.67;136885;1274;22594;-83
2023/10/08 12:17:39;;;;;;;2.50;1.50;;;;;;;11.43;45.37;99348.39;137405;1273;23205;-83
2023/10/08 12:20:43;;;;;;;3.40;1.50;;;;;;;11.49;44.40;99345.86;136804;1273;22266;-83
2023/10/08 12:23:46;;;;;;;;;;;;;;;11.54;45.12;99342.80;137467;1274;22949;-83
2023/10/08 12:26:49;;;;;;;1.80;1.20;;;;;;;11.60;44.25;99346.90;137417;1274;22387;-82
2023/10/08 12:29:52;;;;;;;5.20;1.40;;;;;;;11.64;43.29;99344.18;137411;1274;22553;-80
2023/10/08 12:32:57;;;;;;;3.40;1.60;;;;;;;11.69;43.79;99351.58;137319;1274;22569;-84
2023/10/08 12:36:10;;;;;;;;;;;;;;;11.76;43.44;99350.65;137465;1274;22657;-83
2023/10/08 12:39:15;;;;;;;3.30;1.70;;;;;;;11.73;42.79;99351.64;137375;1274;22185;-83
2023/10/08 12:42:17;;;;;;;;;;;;;;;11.73;42.11;99367.00;137467;1274;22524;-85
2023/10/08 12:45:21;;;;;;;2.40;1.40;;;;;;;11.63;40.50;99365.96;137367;1274;22192;-84
2023/10/08 12:48:25;;;;;;;2.80;2.10;;;;;;;11.55;40.90;99371.76;137321;1274;22573;-84
2023/10/08 12:51:31;;;;;;;2.60;1.90;;;;;;;11.57;40.80;99373.70;137373;1274;22675;-83
2023/10/08 12:54:45;;;;;;;1.60;1.20;;;;;;;11.54;40.61;99372.09;137401;1274;22292;-83
2023/10/08 12:57:53;;;;;;;2.00;1.30;;;;;;;11.59;40.55;99378.44;137200;1274;22439;-83
2023/10/08 13:00:58;;;;;;;1.60;1.00;;;;;;;11.52;37.90;99373.27;137355;1274;23232;-82
2023/10/08 13:04:07;;;;;;;2.20;1.20;;;;;;;11.48;39.22;99376.35;137287;1274;22976;-84
2023/10/08 13:07:11;;;;;;;2.80;1.60;;;;;;;11.46;39.09;99371.10;137333;1274;22395;-84
2023/10/08 13:10:14;;;;;;;2.90;1.40;;;;;;;11.45;39.34;99368.45;137331;1274;22240;-82
2023/10/08 13:13:18;;;;;;;2.00;1.50;;;;;;;11.44;38.97;99368.96;137387;1274;22568;-84
2023/10/08 13:16:22;;;;;;;4.70;2.00;;;;;;;11.45;40.16;99374.39;137456;1274;22128;-83
2023/10/08 13:19:26;;;;;;;3.60;1.90;;;;;;;11.48;39.96;99377.05;137453;1274;22467;-81
2023/10/08 13:22:28;;;;;;;2.60;1.90;;;;;;;11.47;40.25;99370.25;137419;1274;22555;-82
2023/10/08 13:25:33;;;;;;;2.30;1.30;;;;;;;11.48;40.67;99376.70;137419;1274;22158;-82
2023/10/08 13:28:35;;;;;;;1.70;1.20;;;;;;;11.45;40.63;99378.73;137427;1274;23092;-86
2023/10/08 13:31:38;;;;;;;2.60;1.60;;;;;;;11.46;41.01;99381.20;137282;1274;22229;-83
2023/10/08 13:34:40;;;;;;;2.90;1.60;;;;;;;11.44;40.16;99389.02;137461;1274;22571;-80
2023/10/08 13:37:46;;;;;;;2.00;1.70;;;;;;;11.43;39.49;99399.62;137458;1274;22082;-83
2023/10/08 13:44:28;;;;;;;3.40;1.70;;;;;;;11.30;38.51;99407.74;132487;1305;544838;-81
2023/10/08 13:47:33;;;;;;;2.80;1.70;;;;;;;11.25;39.00;99406.40;135572;1287;22437;-82
2023/10/08 13:50:36;;;;;;;3.20;1.40;;;;;;;11.23;39.41;99402.19;135900;1290;22571;-81
2023/10/08 13:53:39;;;;;;;3.20;2.00;;;;;;;11.27;40.44;99409.79;135989;1290;22273;-81
2023/10/08 13:56:47;;;;;;;5.70;1.70;;;;;;;11.25;39.86;99414.25;135381;1287;175842;-81
2023/10/08 13:59:50;;;;;;;1.80;1.50;;;;;;;11.19;40.13;99415.01;135735;1287;24218;-81
2023/10/08 14:02:53;;;;;;;2.30;1.40;;;;;;;11.14;40.83;99423.98;136311;1281;25937;-81
2023/10/08 14:05:58;;;;;;;2.80;1.80;;;;;;;11.12;41.01;99431.44;135709;1287;22439;-82
2023/10/08 14:09:07;;;;;;;2.50;1.40;;;;;;;11.13;41.47;99428.48;135717;1287;22429;-82
2023/10/08 14:12:10;;;;;;;2.10;1.30;;;;;;;11.10;40.79;99433.66;136765;1280;22593;-80
2023/10/08 14:15:15;;;;;;;3.60;2.00;;;;;;;11.03;40.00;99445.54;136459;1280;22559;-77
2023/10/08 14:18:17;;;;;;;;;;;;;;;10.96;39.59;99440.52;136700;1280;22527;-80
2023/10/08 14:21:23;;;;;;;7.50;1.70;;;;;;;10.83;40.65;99441.30;136257;1280;22542;-80
2023/10/08 14:24:29;;;;;;;1.30;1.20;;;;;;;10.73;42.09;99441.64;136785;1276;22242;-82
2023/10/08 14:27:32;;;;;;;2.90;1.70;;;;;;;10.70;42.06;99441.05;136287;1280;22207;-81
2023/10/08 14:30:40;;;;;;;3.00;1.50;;;;;;;10.69;42.30;99444.17;136291;1280;24899;-80
2023/10/08 14:33:55;;;;;;;2.40;1.60;;;;;;;10.66;41.85;99445.48;136842;1280;22627;-80
2023/10/08 14:43:38;;;;;;;2.90;2.10;;;;;;;10.62;43.76;99444.36;136280;1280;22204;-81
2023/10/08 14:46:40;;;;;;;2.50;1.60;;;;;;;10.59;43.81;99446.38;136888;1280;22168;-80
2023/10/08 14:49:43;;;;;;;2.10;1.60;;;;;;;10.54;43.69;99448.36;136295;1280;22588;-81
2023/10/08 14:52:46;;;;;;;2.90;2.00;;;;;;;10.49;43.28;99450.01;136336;1280;22427;-81